createdAt,value
2019-04-23T00:00:17.061Z,9.93
2019-04-23T00:03:18.723Z,9.89
2019-04-23T00:06:28.804Z,9.86
2019-04-23T00:09:36.843Z,9.82
2019-04-23T00:12:44.171Z,9.82
2019-04-23T00:15:58.708Z,9.90
2019-04-23T00:18:56.062Z,9.81
2019-04-23T00:22:29.659Z,9.84
2019-04-23T00:25:55.919Z,9.80
2019-04-23T00:29:05.382Z,9.82
2019-04-23T00:32:10.331Z,9.78
2019-04-23T00:35:06.387Z,9.80
2019-04-23T00:38:18.253Z,9.76
2019-04-23T00:41:22.763Z,9.73
2019-04-23T00:44:32.478Z,9.74
2019-04-23T00:50:44.735Z,9.75
2019-04-23T00:53:38.900Z,9.82
2019-04-23T00:56:54.532Z,9.78
2019-04-23T01:03:05.813Z,9.90
2019-04-23T01:06:06.490Z,9.98
2019-04-23T01:09:10.464Z,9.99
2019-04-23T01:12:22.798Z,9.96
2019-04-23T01:15:25.554Z,10.11
2019-04-23T01:18:38.041Z,10.05
2019-04-23T01:21:22.475Z,10.03
2019-04-23T01:24:39.987Z,10.04
2019-04-23T01:28:28.380Z,10.11
2019-04-23T01:31:39.487Z,10.18
2019-04-23T01:34:38.802Z,10.25
2019-04-23T01:37:41.240Z,10.36
2019-04-23T01:40:45.877Z,10.25
2019-04-23T01:43:51.668Z,10.32
2019-04-23T01:47:00.644Z,10.32
2019-04-23T01:53:14.352Z,10.32
2019-04-23T01:56:21.568Z,10.33
2019-04-23T01:59:24.539Z,10.39
2019-04-23T02:02:35.831Z,10.32
2019-04-23T02:05:34.877Z,10.41
2019-04-23T02:08:41.947Z,10.43
2019-04-23T02:14:59.385Z,10.36
2019-04-23T02:18:07.992Z,10.41
2019-04-23T02:21:07.611Z,10.42
2019-04-23T02:24:11.974Z,10.30
2019-04-23T02:27:22.395Z,10.36
2019-04-23T02:30:55.035Z,10.45
2019-04-23T02:36:45.130Z,10.35
2019-04-23T02:43:06.925Z,10.33
2019-04-23T02:46:02.425Z,10.33
2019-04-23T02:55:21.458Z,10.21
2019-04-23T02:58:32.820Z,10.16
2019-04-23T03:01:25.351Z,10.21
2019-04-23T03:04:42.227Z,10.20
2019-04-23T03:07:45.681Z,10.21
2019-04-23T03:10:55.609Z,10.27
2019-04-23T03:13:53.981Z,10.26
2019-04-23T03:20:15.217Z,10.23
2019-04-23T03:23:42.709Z,10.19
2019-04-23T03:26:40.787Z,10.26
2019-04-23T03:33:04.081Z,10.16
2019-04-23T03:38:48.243Z,10.13
2019-04-23T03:41:53.911Z,10.29
2019-04-23T03:45:13.952Z,10.17
2019-04-23T03:48:05.984Z,10.19
2019-04-23T03:51:11.621Z,10.17
2019-04-23T03:57:30.705Z,10.04
2019-04-23T04:01:08.837Z,10.02
2019-04-23T04:07:51.143Z,10.04
2019-04-23T04:10:54.457Z,9.99
2019-04-23T04:14:12.009Z,10.04
2019-04-23T04:20:28.962Z,9.93
2019-04-23T04:26:37.807Z,10.11
2019-04-23T04:29:47.212Z,9.98
2019-04-23T04:36:29.117Z,10.07
2019-04-23T04:39:43.131Z,10.06
2019-04-23T04:42:44.662Z,9.99
2019-04-23T04:46:14.911Z,10.02
2019-04-23T04:48:56.981Z,10.03
2019-04-23T04:52:11.354Z,10.20
2019-04-23T04:55:03.273Z,10.28
2019-04-23T04:58:18.064Z,10.29
2019-04-23T05:07:34.056Z,10.30
2019-04-23T05:10:45.840Z,10.33
2019-04-23T05:13:58.393Z,10.37
2019-04-23T05:16:44.503Z,10.52
2019-04-23T05:22:59.477Z,10.55
2019-04-23T05:25:58.837Z,10.62
2019-04-23T05:29:14.548Z,10.78
2019-04-23T05:32:07.610Z,10.89
2019-04-23T05:35:26.181Z,10.95
2019-04-23T05:38:29.191Z,11.08
2019-04-23T05:47:39.427Z,11.14
2019-04-23T05:50:52.355Z,11.20
2019-04-23T05:53:47.360Z,11.26
2019-04-23T05:56:54.110Z,11.27
2019-04-23T05:59:54.770Z,11.35
2019-04-23T06:03:22.339Z,11.40
2019-04-23T06:06:11.217Z,11.46
2019-04-23T06:12:22.888Z,11.63
2019-04-23T06:15:29.091Z,11.80
2019-04-23T06:18:41.830Z,11.82
2019-04-23T06:21:44.342Z,11.88
2019-04-23T06:24:41.094Z,11.99
2019-04-23T06:28:09.508Z,12.14
2019-04-23T06:34:04.476Z,12.27
2019-04-23T06:40:13.845Z,12.45
2019-04-23T06:43:24.358Z,12.49
2019-04-23T06:46:34.768Z,12.55
2019-04-23T06:49:37.667Z,12.68
2019-04-23T06:52:31.875Z,12.73
2019-04-23T06:55:49.536Z,12.80
2019-04-23T06:58:50.851Z,12.87
2019-04-23T07:02:07.998Z,12.93
2019-04-23T07:05:03.361Z,12.94
2019-04-23T07:08:12.087Z,13.01
2019-04-23T07:11:23.238Z,13.09
2019-04-23T07:14:16.369Z,13.25
2019-04-23T07:17:18.507Z,13.30
2019-04-23T07:20:28.675Z,13.37
2019-04-23T07:26:41.088Z,13.53
2019-04-23T07:36:01.850Z,13.63
2019-04-23T07:39:27.439Z,13.73
2019-04-23T07:46:29.714Z,13.98
2019-04-23T07:49:27.342Z,13.96
2019-04-23T07:52:33.749Z,14.06
2019-04-23T07:55:41.363Z,14.11
2019-04-23T07:58:33.247Z,14.23
2019-04-23T08:01:51.216Z,14.35
2019-04-23T08:07:58.756Z,14.40
2019-04-23T08:14:08.543Z,14.62
2019-04-23T08:17:17.569Z,14.54
2019-04-23T08:20:30.758Z,14.50
2019-04-23T08:23:53.301Z,14.59
2019-04-23T08:27:04.659Z,14.36
2019-04-23T08:30:09.824Z,14.40
2019-04-23T08:33:17.575Z,14.47
2019-04-23T08:36:27.807Z,14.56
2019-04-23T08:42:58.904Z,14.59
2019-04-23T08:45:52.824Z,14.64
2019-04-23T08:49:06.677Z,14.71
2019-04-23T08:52:07.161Z,14.64
2019-04-23T08:55:10.102Z,14.69
2019-04-23T08:58:20.552Z,14.84
2019-04-23T09:01:50.721Z,14.94
2019-04-23T09:04:31.293Z,15.04
2019-04-23T09:07:55.306Z,14.90
2019-04-23T09:10:40.934Z,15.11
2019-04-23T09:13:54.833Z,15.06
2019-04-23T09:16:50.975Z,15.02
2019-04-23T09:20:15.060Z,15.14
2019-04-23T09:22:55.110Z,15.04
2019-04-23T09:26:03.838Z,15.02
2019-04-23T09:29:17.224Z,14.90
2019-04-23T09:32:25.186Z,15.03
2019-04-23T09:35:46.082Z,15.29
2019-04-23T09:42:38.420Z,15.17
2019-04-23T09:45:59.843Z,15.22
2019-04-23T09:49:13.437Z,15.09
2019-04-23T09:52:07.231Z,15.09
2019-04-23T09:55:15.448Z,15.19
2019-04-23T09:58:12.202Z,15.05
2019-04-23T10:01:27.839Z,14.97
2019-04-23T10:04:19.439Z,15.20
2019-04-23T10:07:25.096Z,15.27
2019-04-23T10:10:18.601Z,15.39
2019-04-23T10:13:24.075Z,15.70
2019-04-23T10:16:30.911Z,15.69
2019-04-23T10:19:35.052Z,15.41
2019-04-23T10:22:39.549Z,15.68
2019-04-23T10:25:43.848Z,15.31
2019-04-23T10:28:51.911Z,15.30
2019-04-23T10:31:57.586Z,15.51
2019-04-23T10:35:15.069Z,15.56
2019-04-23T10:38:12.157Z,15.72
2019-04-23T10:41:14.087Z,15.67
2019-04-23T10:44:41.199Z,15.55
2019-04-23T10:52:02.569Z,15.70
2019-04-23T10:55:15.703Z,15.73
2019-04-23T10:58:10.282Z,15.78
2019-04-23T11:01:19.610Z,15.96
2019-04-23T11:04:36.022Z,16.07
2019-04-23T11:07:32.522Z,16.01
2019-04-23T11:10:26.269Z,16.10
2019-04-23T11:13:38.260Z,15.88
2019-04-23T11:19:56.962Z,16.05
2019-04-23T11:22:51.568Z,16.27
2019-04-23T11:26:06.839Z,15.98
2019-04-23T11:29:15.186Z,16.14
2019-04-23T11:41:51.349Z,16.34
2019-04-23T11:51:26.221Z,16.19
2019-04-23T11:53:56.134Z,16.20
2019-04-23T11:57:22.441Z,16.14
2019-04-23T12:00:05.942Z,16.09
2019-04-23T12:03:19.375Z,16.10
2019-04-23T12:13:10.551Z,16.18
2019-04-23T12:16:12.163Z,16.09
2019-04-23T12:19:44.289Z,16.33
2019-04-23T12:22:21.889Z,16.30
2019-04-23T12:25:25.121Z,16.30
2019-04-23T12:31:38.388Z,16.36
2019-04-23T12:34:53.045Z,16.49
2019-04-23T12:37:53.871Z,16.54
2019-04-23T12:41:05.039Z,16.51
2019-04-23T12:44:08.439Z,16.45
2019-04-23T12:47:28.168Z,16.47
2019-04-23T12:56:40.325Z,16.55
2019-04-23T12:59:39.667Z,16.55
2019-04-23T13:02:44.194Z,16.60
2019-04-23T13:05:36.091Z,16.72
2019-04-23T13:08:54.307Z,16.58
2019-04-23T13:12:12.515Z,16.79
2019-04-23T13:15:11.550Z,16.79
2019-04-23T13:18:15.096Z,16.75
2019-04-23T13:21:41.469Z,16.60
2019-04-23T13:24:32.856Z,16.70
2019-04-23T13:33:50.984Z,16.61
2019-04-23T13:36:59.842Z,16.77
2019-04-23T13:40:09.435Z,16.91
2019-04-23T13:43:25.223Z,16.99
2019-04-23T13:49:27.807Z,17.09
2019-04-23T13:55:34.894Z,17.22
2019-04-23T13:58:50.284Z,17.25
2019-04-23T14:01:39.932Z,17.16
2019-04-23T14:05:18.418Z,17.01
2019-04-23T14:08:22.505Z,17.10
2019-04-23T14:14:52.072Z,17.26
2019-04-23T14:17:47.117Z,17.32
2019-04-23T14:20:44.993Z,17.40
2019-04-23T14:24:03.453Z,17.17
2019-04-23T14:26:50.528Z,17.40
2019-04-23T14:30:07.282Z,17.48
2019-04-23T14:33:15.433Z,17.45
2019-04-23T14:36:07.562Z,17.25
2019-04-23T14:39:18.801Z,17.42
2019-04-23T14:42:26.422Z,17.43
2019-04-23T14:45:44.205Z,17.55
2019-04-23T14:48:31.338Z,17.51
2019-04-23T14:51:44.207Z,17.46
2019-04-23T14:55:37.937Z,17.58
2019-04-23T14:58:12.578Z,17.59
2019-04-23T15:04:25.212Z,17.50
2019-04-23T15:07:23.033Z,17.48
2019-04-23T15:10:24.819Z,17.69
2019-04-23T15:13:28.315Z,17.64
2019-04-23T15:16:37.958Z,17.57
2019-04-23T15:23:10.826Z,17.91
2019-04-23T15:27:38.568Z,18.10
2019-04-23T15:28:41.194Z,18.12
2019-04-23T15:32:13.070Z,18.20
2019-04-23T15:35:23.777Z,18.15
2019-04-23T15:41:33.257Z,18.73
2019-04-23T15:44:23.028Z,18.75
2019-04-23T15:47:45.534Z,18.92
2019-04-23T15:50:43.452Z,18.71
2019-04-23T15:53:48.535Z,19.13
2019-04-23T15:56:57.872Z,19.15
2019-04-23T15:59:58.806Z,19.16
2019-04-23T16:02:37.217Z,19.05
2019-04-23T16:05:41.315Z,19.00
2019-04-23T16:09:06.367Z,19.10
2019-04-23T16:12:20.403Z,18.86
2019-04-23T16:15:21.763Z,18.51
2019-04-23T16:18:41.204Z,18.46
2019-04-23T16:21:58.408Z,18.13
2019-04-23T16:25:00.977Z,17.81
2019-04-23T16:28:02.842Z,17.54
2019-04-23T16:31:13.009Z,17.27
2019-04-23T16:34:27.304Z,17.08
2019-04-23T16:37:27.398Z,16.78
2019-04-23T16:43:42.432Z,16.55
2019-04-23T16:46:52.549Z,16.52
2019-04-23T16:50:03.062Z,16.42
2019-04-23T16:53:05.027Z,16.28
2019-04-23T16:59:13.854Z,16.12
2019-04-23T17:02:14.935Z,16.05
2019-04-23T17:05:24.944Z,16.09
2019-04-23T17:11:25.284Z,15.82
2019-04-23T17:14:38.076Z,15.70
2019-04-23T17:17:38.249Z,15.65
2019-04-23T17:24:15.453Z,15.54
2019-04-23T17:27:03.749Z,15.38
2019-04-23T17:30:06.774Z,15.39
2019-04-23T17:33:30.690Z,15.37
2019-04-23T17:40:03.780Z,15.05
2019-04-23T17:43:04.025Z,15.01
2019-04-23T17:46:18.122Z,14.89
2019-04-23T17:49:18.742Z,15.01
2019-04-23T17:52:26.269Z,14.74
2019-04-23T17:55:35.839Z,14.53
2019-04-23T17:58:34.165Z,14.59
2019-04-23T18:01:47.360Z,14.46
2019-04-23T18:04:56.201Z,14.35
2019-04-23T18:11:16.026Z,14.14
2019-04-23T18:17:17.870Z,14.12
2019-04-23T18:20:59.279Z,14.05
2019-04-23T18:24:23.390Z,14.04
2019-04-23T18:31:05.884Z,13.78
2019-04-23T18:34:08.764Z,13.68
2019-04-23T18:37:17.940Z,13.57
2019-04-23T18:40:23.424Z,13.57
2019-04-23T18:43:29.662Z,13.63
2019-04-23T18:49:41.142Z,13.47
2019-04-23T18:52:49.822Z,13.35
2019-04-23T18:56:58.385Z,13.27
2019-04-23T19:05:39.831Z,13.21
2019-04-23T19:12:24.806Z,13.01
2019-04-23T19:15:30.823Z,13.02
2019-04-23T19:18:35.998Z,12.99
2019-04-23T19:22:04.345Z,13.09
2019-04-23T19:24:40.561Z,12.96
2019-04-23T19:27:48.890Z,12.88
2019-04-23T19:31:05.598Z,12.89
2019-04-23T19:34:24.764Z,12.93
2019-04-23T19:37:43.498Z,13.02
2019-04-23T19:40:35.147Z,12.94
2019-04-23T19:43:33.029Z,13.02
2019-04-23T19:46:50.594Z,12.97
2019-04-23T19:53:03.988Z,13.03
2019-04-23T19:56:03.975Z,13.09
2019-04-23T19:58:56.721Z,13.07
2019-04-23T20:02:07.742Z,13.09
2019-04-23T20:05:10.893Z,13.09
2019-04-23T20:08:24.753Z,13.12
2019-04-23T20:11:30.224Z,13.13
2019-04-23T20:17:37.992Z,13.06
2019-04-23T20:20:45.440Z,13.16
2019-04-23T20:26:51.631Z,13.10
2019-04-23T20:36:30.241Z,13.17
2019-04-23T20:39:34.923Z,13.18
2019-04-23T20:45:46.541Z,13.28
2019-04-23T20:49:00.859Z,13.26
2019-04-23T20:52:01.597Z,13.18
2019-04-23T20:58:13.880Z,13.12
2019-04-23T21:01:31.077Z,13.11
2019-04-23T21:04:45.303Z,13.09
2019-04-23T21:10:44.948Z,13.06
2019-04-23T21:14:12.174Z,13.09
2019-04-23T21:17:00.117Z,13.11
2019-04-23T21:23:19.279Z,13.13
2019-04-23T21:26:07.935Z,13.15
2019-04-23T21:29:15.241Z,13.13
2019-04-23T21:32:35.098Z,13.19
2019-04-23T21:36:03.181Z,13.12
2019-04-23T21:39:13.037Z,13.23
2019-04-23T21:42:33.115Z,13.25
2019-04-23T21:45:42.017Z,13.33
2019-04-23T21:48:59.150Z,13.34
2019-04-23T21:54:49.283Z,13.22
2019-04-23T21:58:04.564Z,13.24
2019-04-23T22:01:21.277Z,13.19
2019-04-23T22:04:25.074Z,12.98
2019-04-23T22:07:25.850Z,13.01
2019-04-23T22:10:31.946Z,12.89
2019-04-23T22:13:51.099Z,12.80
2019-04-23T22:20:00.559Z,12.64
2019-04-23T22:26:07.856Z,12.61
2019-04-23T22:32:17.422Z,12.54
2019-04-23T22:35:21.983Z,12.43
2019-04-23T22:38:26.039Z,12.51
2019-04-23T22:41:36.277Z,12.53
2019-04-23T22:44:46.869Z,12.52
2019-04-23T22:47:47.747Z,12.26
2019-04-23T22:51:02.323Z,12.21
2019-04-23T22:53:58.588Z,12.15
2019-04-23T23:03:21.431Z,11.99
2019-04-23T23:06:36.856Z,11.90
2019-04-23T23:09:33.241Z,11.99
2019-04-23T23:12:44.917Z,12.08
2019-04-23T23:15:44.977Z,12.06
2019-04-23T23:18:50.038Z,12.00
2019-04-23T23:25:06.701Z,12.14
2019-04-23T23:28:11.859Z,12.07
2019-04-23T23:31:06.520Z,12.07
2019-04-23T23:37:39.731Z,11.98
2019-04-23T23:40:25.547Z,11.96
2019-04-23T23:43:29.943Z,11.94
2019-04-23T23:46:56.282Z,11.82
2019-04-23T23:49:43.856Z,11.84
2019-04-23T23:52:59.698Z,11.85
2019-04-23T23:56:10.905Z,11.83
2019-04-23T23:59:03.916Z,11.79
